This is the latest recevied weather packets stored in our database for station/object K8ZAS. If no packets are shown the sender has not sent any weather packets the latest 10 day(s).
| Time | Temp. | Humidity | Pressure | Rain* | Wind** | Luminosity | Snow |
|---|---|---|---|---|---|---|---|
| 1778092517 | 8.33° C | 41% | 1017 hPa | 0 mm | - | 1012 W/m² | - |
| 1778091940 | 7.78° C | 44% | 1017.3 hPa | 0 mm | - | 1006 W/m² | - |
| 1778087118 | 5° C | 51% | 1018.2 hPa | 0 mm | - | 893 W/m² | - |
| 1778084719 | 3.89° C | 66% | 1018.9 hPa | 0 mm | - | 621 W/m² | - |
| 1778070317 | -3.89° C | 93% | 1017.8 hPa | 0 mm | - | 16 W/m² | - |
| 1778069717 | -3.89° C | 93% | 1017.7 hPa | 0 mm | - | 9 W/m² | - |
| 1778064919 | -3.33° C | 92% | 1017.5 hPa | 0 mm | - | 0 W/m² | - |
| 1778061339 | -2.22° C | 92% | 1017 hPa | 0 mm | - | 0 W/m² | - |
| 1778055920 | -0.56° C | 92% | 1016.9 hPa | 0 mm | - | 0 W/m² | - |
| 1778055320 | -0.56° C | 91% | 1016.9 hPa | 0 mm | - | 0 W/m² | - |
| 1778048742 | 0.56° C | 88% | 1017 hPa | 0 mm | - | 0 W/m² | - |
| 1778046922 | 0.56° C | 91% | 1017.3 hPa | 0 mm | - | 0 W/m² | - |
| 1778043923 | 0.56° C | 92% | 1017.3 hPa | 0 mm | - | 0 W/m² | - |
| 1778042124 | 0.56° C | 92% | 1017 hPa | 0 mm | - | 0 W/m² | - |
| 1778038518 | 0.56° C | 91% | 1016.5 hPa | 0 mm | - | 0 W/m² | - |
| 1778037918 | 0.56° C | 91% | 1016.6 hPa | 0 mm | - | 0 W/m² | - |
| 1778033717 | 0.56° C | 90% | 1015.5 hPa | 0 mm | - | 1 W/m² | - |
| 1778025919 | 3.89° C | 62% | 1014.5 hPa | 0 mm | - | 46 W/m² | - |
| 1778024116 | 3.89° C | 72% | 1014.2 hPa | 0 mm | - | 126 W/m² | - |
| 1778019318 | 7.78° C | 41% | 1012.2 hPa | 0 mm | - | 153 W/m² | - |
| 1778017518 | 7.78° C | 40% | 1012.1 hPa | 0 mm | - | 179 W/m² | - |
| 1778016318 | 7.22° C | 41% | 1012 hPa | 0 mm | - | 268 W/m² | - |
| 1778015139 | 7.22° C | 41% | 1012.2 hPa | 0 mm | - | 191 W/m² | - |
| 1778011520 | 7.78° C | 42% | 1012.6 hPa | 0 mm | - | 296 W/m² | - |
| 1778010317 | 8.33° C | 39% | 1012.5 hPa | 0 mm | - | 408 W/m² | - |
* Rain latest hour (hover to see other rain measurements)
** Current wind speed in m/s (hover to see current wind gust speed)